sensor_id;sensor_type;location;lat;lon;timestamp;P1;durP1;ratioP1;P2;durP2;ratioP2
7031;SDS011;3557;48.880;8.328;2022-10-26T00:01:40;3.78;;;1.77;;
7031;SDS011;3557;48.880;8.328;2022-10-26T00:04:07;7.55;;;1.88;;
7031;SDS011;3557;48.880;8.328;2022-10-26T00:06:34;2.20;;;1.58;;
7031;SDS011;3557;48.880;8.328;2022-10-26T00:09:01;2.05;;;1.80;;
7031;SDS011;3557;48.880;8.328;2022-10-26T00:11:28;7.45;;;1.80;;
7031;SDS011;3557;48.880;8.328;2022-10-26T00:13:57;4.43;;;1.90;;
7031;SDS011;3557;48.880;8.328;2022-10-26T00:16:24;3.67;;;1.88;;
7031;SDS011;3557;48.880;8.328;2022-10-26T00:18:53;3.30;;;1.60;;
7031;SDS011;3557;48.880;8.328;2022-10-26T00:21:20;3.15;;;1.60;;
7031;SDS011;3557;48.880;8.328;2022-10-26T00:23:47;2.53;;;1.60;;
7031;SDS011;3557;48.880;8.328;2022-10-26T00:26:14;3.53;;;1.63;;
7031;SDS011;3557;48.880;8.328;2022-10-26T00:28:42;2.83;;;1.63;;
7031;SDS011;3557;48.880;8.328;2022-10-26T00:31:12;3.45;;;2.05;;
7031;SDS011;3557;48.880;8.328;2022-10-26T00:33:40;9.20;;;2.10;;
7031;SDS011;3557;48.880;8.328;2022-10-26T00:36:07;5.10;;;2.05;;
7031;SDS011;3557;48.880;8.328;2022-10-26T00:38:38;4.22;;;1.67;;
7031;SDS011;3557;48.880;8.328;2022-10-26T00:41:10;3.00;;;1.83;;
7031;SDS011;3557;48.880;8.328;2022-10-26T00:43:40;4.30;;;1.70;;
7031;SDS011;3557;48.880;8.328;2022-10-26T00:46:09;6.68;;;2.17;;
7031;SDS011;3557;48.880;8.328;2022-10-26T00:48:43;3.63;;;1.73;;
7031;SDS011;3557;48.880;8.328;2022-10-26T00:51:17;4.03;;;2.00;;
7031;SDS011;3557;48.880;8.328;2022-10-26T00:53:51;3.55;;;1.80;;
7031;SDS011;3557;48.880;8.328;2022-10-26T00:56:18;3.63;;;1.92;;
7031;SDS011;3557;48.880;8.328;2022-10-26T00:58:46;2.72;;;1.90;;
7031;SDS011;3557;48.880;8.328;2022-10-26T01:01:14;3.13;;;2.05;;
7031;SDS011;3557;48.880;8.328;2022-10-26T01:03:41;2.70;;;2.00;;
7031;SDS011;3557;48.880;8.328;2022-10-26T01:06:09;4.03;;;2.22;;
7031;SDS011;3557;48.880;8.328;2022-10-26T01:08:37;2.88;;;2.33;;
7031;SDS011;3557;48.880;8.328;2022-10-26T01:11:05;3.38;;;1.92;;
7031;SDS011;3557;48.880;8.328;2022-10-26T01:13:33;5.45;;;1.85;;
7031;SDS011;3557;48.880;8.328;2022-10-26T01:16:06;6.95;;;2.10;;
7031;SDS011;3557;48.880;8.328;2022-10-26T01:18:53;5.18;;;2.20;;
7031;SDS011;3557;48.880;8.328;2022-10-26T01:21:39;2.30;;;1.90;;
7031;SDS011;3557;48.880;8.328;2022-10-26T01:27:22;7.82;;;2.22;;
7031;SDS011;3557;48.880;8.328;2022-10-26T01:32:59;3.25;;;1.88;;
7031;SDS011;3557;48.880;8.328;2022-10-26T01:35:51;3.75;;;1.98;;
7031;SDS011;3557;48.880;8.328;2022-10-26T01:38:29;2.25;;;1.90;;
7031;SDS011;3557;48.880;8.328;2022-10-26T01:41:03;2.97;;;2.30;;
7031;SDS011;3557;48.880;8.328;2022-10-26T01:43:38;2.97;;;2.40;;
7031;SDS011;3557;48.880;8.328;2022-10-26T01:46:09;2.50;;;2.05;;
7031;SDS011;3557;48.880;8.328;2022-10-26T01:48:37;9.07;;;1.77;;
7031;SDS011;3557;48.880;8.328;2022-10-26T01:51:06;2.78;;;1.70;;
7031;SDS011;3557;48.880;8.328;2022-10-26T01:53:40;3.15;;;1.70;;
7031;SDS011;3557;48.880;8.328;2022-10-26T01:56:10;4.32;;;1.80;;
7031;SDS011;3557;48.880;8.328;2022-10-26T02:05:09;6.60;;;1.98;;
7031;SDS011;3557;48.880;8.328;2022-10-26T02:07:54;2.88;;;1.95;;
7031;SDS011;3557;48.880;8.328;2022-10-26T02:10:31;3.55;;;1.77;;
7031;SDS011;3557;48.880;8.328;2022-10-26T02:13:09;4.63;;;1.80;;
7031;SDS011;3557;48.880;8.328;2022-10-26T02:15:44;3.40;;;2.15;;
7031;SDS011;3557;48.880;8.328;2022-10-26T02:18:22;3.80;;;2.17;;
7031;SDS011;3557;48.880;8.328;2022-10-26T02:20:57;2.53;;;2.00;;
7031;SDS011;3557;48.880;8.328;2022-10-26T02:23:30;3.45;;;2.00;;
7031;SDS011;3557;48.880;8.328;2022-10-26T02:26:00;6.70;;;2.10;;
7031;SDS011;3557;48.880;8.328;2022-10-26T02:28:32;5.93;;;2.50;;
7031;SDS011;3557;48.880;8.328;2022-10-26T02:31:03;2.75;;;2.00;;
7031;SDS011;3557;48.880;8.328;2022-10-26T02:33:35;3.05;;;2.10;;
7031;SDS011;3557;48.880;8.328;2022-10-26T02:36:07;6.68;;;2.10;;
7031;SDS011;3557;48.880;8.328;2022-10-26T02:38:36;3.17;;;2.15;;
7031;SDS011;3557;48.880;8.328;2022-10-26T02:41:06;3.00;;;2.10;;
7031;SDS011;3557;48.880;8.328;2022-10-26T02:43:36;4.25;;;2.28;;
7031;SDS011;3557;48.880;8.328;2022-10-26T02:46:12;9.35;;;2.22;;
7031;SDS011;3557;48.880;8.328;2022-10-26T02:48:44;7.38;;;2.00;;
7031;SDS011;3557;48.880;8.328;2022-10-26T02:51:11;6.03;;;2.40;;
7031;SDS011;3557;48.880;8.328;2022-10-26T02:53:44;7.95;;;2.13;;
7031;SDS011;3557;48.880;8.328;2022-10-26T02:56:17;5.75;;;2.22;;
7031;SDS011;3557;48.880;8.328;2022-10-26T02:58:50;10.40;;;2.28;;
7031;SDS011;3557;48.880;8.328;2022-10-26T03:01:22;6.57;;;2.50;;
7031;SDS011;3557;48.880;8.328;2022-10-26T03:03:51;2.83;;;2.10;;
7031;SDS011;3557;48.880;8.328;2022-10-26T03:06:22;4.53;;;2.13;;
7031;SDS011;3557;48.880;8.328;2022-10-26T03:08:50;6.13;;;2.30;;
7031;SDS011;3557;48.880;8.328;2022-10-26T03:11:18;2.92;;;2.20;;
7031;SDS011;3557;48.880;8.328;2022-10-26T03:13:45;3.17;;;2.30;;
7031;SDS011;3557;48.880;8.328;2022-10-26T03:16:12;3.92;;;2.22;;
7031;SDS011;3557;48.880;8.328;2022-10-26T03:18:39;3.67;;;1.98;;
7031;SDS011;3557;48.880;8.328;2022-10-26T03:21:07;6.82;;;2.30;;
7031;SDS011;3557;48.880;8.328;2022-10-26T03:23:34;3.80;;;2.15;;
7031;SDS011;3557;48.880;8.328;2022-10-26T03:26:01;3.65;;;2.20;;
7031;SDS011;3557;48.880;8.328;2022-10-26T03:28:29;4.35;;;2.40;;
7031;SDS011;3557;48.880;8.328;2022-10-26T03:30:57;4.05;;;2.40;;
7031;SDS011;3557;48.880;8.328;2022-10-26T03:33:24;12.52;;;2.50;;
7031;SDS011;3557;48.880;8.328;2022-10-26T03:35:54;8.27;;;2.55;;
7031;SDS011;3557;48.880;8.328;2022-10-26T03:38:23;3.67;;;2.05;;
7031;SDS011;3557;48.880;8.328;2022-10-26T03:40:50;7.60;;;2.30;;
7031;SDS011;3557;48.880;8.328;2022-10-26T03:43:18;5.00;;;2.13;;
7031;SDS011;3557;48.880;8.328;2022-10-26T03:45:45;6.63;;;2.25;;
7031;SDS011;3557;48.880;8.328;2022-10-26T03:48:12;6.15;;;2.55;;
7031;SDS011;3557;48.880;8.328;2022-10-26T03:50:40;6.78;;;2.47;;
7031;SDS011;3557;48.880;8.328;2022-10-26T03:53:07;7.53;;;2.35;;
7031;SDS011;3557;48.880;8.328;2022-10-26T03:55:36;4.18;;;2.28;;
7031;SDS011;3557;48.880;8.328;2022-10-26T03:58:03;7.43;;;2.30;;
7031;SDS011;3557;48.880;8.328;2022-10-26T04:00:30;7.28;;;2.97;;
7031;SDS011;3557;48.880;8.328;2022-10-26T04:02:58;4.75;;;2.78;;
7031;SDS011;3557;48.880;8.328;2022-10-26T04:05:26;4.40;;;2.60;;
7031;SDS011;3557;48.880;8.328;2022-10-26T04:07:55;4.85;;;2.40;;
7031;SDS011;3557;48.880;8.328;2022-10-26T04:10:23;6.35;;;2.55;;
7031;SDS011;3557;48.880;8.328;2022-10-26T04:12:53;3.50;;;2.50;;
7031;SDS011;3557;48.880;8.328;2022-10-26T04:15:21;6.75;;;2.47;;
7031;SDS011;3557;48.880;8.328;2022-10-26T04:17:54;6.53;;;2.45;;
7031;SDS011;3557;48.880;8.328;2022-10-26T04:20:22;6.30;;;2.50;;
7031;SDS011;3557;48.880;8.328;2022-10-26T04:22:55;4.88;;;2.83;;
7031;SDS011;3557;48.880;8.328;2022-10-26T04:25:24;5.32;;;2.53;;
7031;SDS011;3557;48.880;8.328;2022-10-26T04:27:51;6.22;;;2.60;;
7031;SDS011;3557;48.880;8.328;2022-10-26T04:30:19;4.68;;;2.30;;
7031;SDS011;3557;48.880;8.328;2022-10-26T04:32:47;6.20;;;2.60;;
7031;SDS011;3557;48.880;8.328;2022-10-26T04:35:14;5.20;;;2.40;;
7031;SDS011;3557;48.880;8.328;2022-10-26T04:37:41;5.88;;;2.20;;
7031;SDS011;3557;48.880;8.328;2022-10-26T04:40:09;4.40;;;2.50;;
7031;SDS011;3557;48.880;8.328;2022-10-26T04:42:39;5.43;;;3.28;;
7031;SDS011;3557;48.880;8.328;2022-10-26T04:45:08;6.60;;;3.20;;
7031;SDS011;3557;48.880;8.328;2022-10-26T04:47:37;7.60;;;3.03;;
7031;SDS011;3557;48.880;8.328;2022-10-26T04:50:05;12.55;;;3.30;;
7031;SDS011;3557;48.880;8.328;2022-10-26T04:52:33;3.97;;;2.95;;
7031;SDS011;3557;48.880;8.328;2022-10-26T04:55:00;7.28;;;2.97;;
7031;SDS011;3557;48.880;8.328;2022-10-26T04:57:30;2.85;;;2.53;;
7031;SDS011;3557;48.880;8.328;2022-10-26T04:59:58;9.05;;;3.17;;
7031;SDS011;3557;48.880;8.328;2022-10-26T05:02:25;6.28;;;3.10;;
7031;SDS011;3557;48.880;8.328;2022-10-26T05:04:54;4.95;;;3.05;;
7031;SDS011;3557;48.880;8.328;2022-10-26T05:07:21;5.03;;;3.20;;
7031;SDS011;3557;48.880;8.328;2022-10-26T05:09:48;5.43;;;3.00;;
7031;SDS011;3557;48.880;8.328;2022-10-26T05:12:16;4.35;;;3.10;;
7031;SDS011;3557;48.880;8.328;2022-10-26T05:14:43;7.60;;;2.92;;
7031;SDS011;3557;48.880;8.328;2022-10-26T05:17:10;8.43;;;3.10;;
7031;SDS011;3557;48.880;8.328;2022-10-26T05:19:37;5.38;;;3.05;;
7031;SDS011;3557;48.880;8.328;2022-10-26T05:22:06;3.67;;;2.55;;
7031;SDS011;3557;48.880;8.328;2022-10-26T05:24:33;5.18;;;3.05;;
7031;SDS011;3557;48.880;8.328;2022-10-26T05:27:01;6.55;;;2.97;;
7031;SDS011;3557;48.880;8.328;2022-10-26T05:29:28;7.38;;;3.35;;
7031;SDS011;3557;48.880;8.328;2022-10-26T05:31:55;4.95;;;3.10;;
7031;SDS011;3557;48.880;8.328;2022-10-26T05:34:22;6.70;;;2.90;;
7031;SDS011;3557;48.880;8.328;2022-10-26T05:36:51;6.15;;;3.63;;
7031;SDS011;3557;48.880;8.328;2022-10-26T05:39:20;4.90;;;3.22;;
7031;SDS011;3557;48.880;8.328;2022-10-26T05:41:47;7.60;;;2.80;;
7031;SDS011;3557;48.880;8.328;2022-10-26T05:44:14;7.30;;;2.95;;
7031;SDS011;3557;48.880;8.328;2022-10-26T05:46:41;5.72;;;3.67;;
7031;SDS011;3557;48.880;8.328;2022-10-26T05:49:08;5.38;;;3.10;;
7031;SDS011;3557;48.880;8.328;2022-10-26T05:51:35;6.05;;;3.10;;
7031;SDS011;3557;48.880;8.328;2022-10-26T05:54:03;6.43;;;3.15;;
7031;SDS011;3557;48.880;8.328;2022-10-26T05:56:36;5.93;;;3.05;;
7031;SDS011;3557;48.880;8.328;2022-10-26T05:59:09;6.82;;;3.13;;
7031;SDS011;3557;48.880;8.328;2022-10-26T06:01:43;5.85;;;3.17;;
7031;SDS011;3557;48.880;8.328;2022-10-26T06:04:29;5.13;;;3.22;;
7031;SDS011;3557;48.880;8.328;2022-10-26T06:07:03;5.82;;;3.22;;
7031;SDS011;3557;48.880;8.328;2022-10-26T06:09:36;5.85;;;2.78;;
7031;SDS011;3557;48.880;8.328;2022-10-26T06:12:05;5.15;;;3.50;;
7031;SDS011;3557;48.880;8.328;2022-10-26T06:14:34;8.65;;;3.35;;
7031;SDS011;3557;48.880;8.328;2022-10-26T06:17:06;6.60;;;3.22;;
7031;SDS011;3557;48.880;8.328;2022-10-26T06:19:51;5.45;;;3.08;;
7031;SDS011;3557;48.880;8.328;2022-10-26T06:22:35;12.05;;;3.95;;
7031;SDS011;3557;48.880;8.328;2022-10-26T06:25:15;9.07;;;3.97;;
7031;SDS011;3557;48.880;8.328;2022-10-26T06:27:55;7.43;;;3.38;;
7031;SDS011;3557;48.880;8.328;2022-10-26T06:30:30;3.67;;;3.10;;
7031;SDS011;3557;48.880;8.328;2022-10-26T06:32:58;5.03;;;2.88;;
7031;SDS011;3557;48.880;8.328;2022-10-26T06:35:28;7.30;;;3.03;;
7031;SDS011;3557;48.880;8.328;2022-10-26T06:38:02;8.32;;;2.45;;
7031;SDS011;3557;48.880;8.328;2022-10-26T06:40:34;5.90;;;2.50;;
7031;SDS011;3557;48.880;8.328;2022-10-26T06:43:04;8.50;;;2.80;;
7031;SDS011;3557;48.880;8.328;2022-10-26T06:45:39;8.27;;;2.97;;
7031;SDS011;3557;48.880;8.328;2022-10-26T06:48:12;6.68;;;3.50;;
7031;SDS011;3557;48.880;8.328;2022-10-26T06:50:45;9.18;;;3.42;;
7031;SDS011;3557;48.880;8.328;2022-10-26T06:53:19;6.78;;;3.42;;
7031;SDS011;3557;48.880;8.328;2022-10-26T06:55:52;8.82;;;3.55;;
7031;SDS011;3557;48.880;8.328;2022-10-26T06:58:22;7.13;;;3.20;;
7031;SDS011;3557;48.880;8.328;2022-10-26T07:00:55;11.23;;;3.72;;
7031;SDS011;3557;48.880;8.328;2022-10-26T07:03:22;6.22;;;3.45;;
7031;SDS011;3557;48.880;8.328;2022-10-26T07:05:49;3.70;;;2.90;;
7031;SDS011;3557;48.880;8.328;2022-10-26T07:08:16;5.32;;;2.60;;
7031;SDS011;3557;48.880;8.328;2022-10-26T07:10:44;8.60;;;2.90;;
7031;SDS011;3557;48.880;8.328;2022-10-26T07:13:11;5.47;;;2.88;;
7031;SDS011;3557;48.880;8.328;2022-10-26T07:15:40;5.18;;;2.75;;
7031;SDS011;3557;48.880;8.328;2022-10-26T07:18:07;4.90;;;3.00;;
7031;SDS011;3557;48.880;8.328;2022-10-26T07:20:35;5.28;;;2.92;;
7031;SDS011;3557;48.880;8.328;2022-10-26T07:23:04;3.55;;;2.97;;
7031;SDS011;3557;48.880;8.328;2022-10-26T07:25:32;7.07;;;3.28;;
7031;SDS011;3557;48.880;8.328;2022-10-26T07:28:03;6.72;;;3.25;;
7031;SDS011;3557;48.880;8.328;2022-10-26T07:30:32;5.55;;;3.55;;
7031;SDS011;3557;48.880;8.328;2022-10-26T07:33:00;8.80;;;4.53;;
7031;SDS011;3557;48.880;8.328;2022-10-26T07:35:31;5.68;;;4.70;;
7031;SDS011;3557;48.880;8.328;2022-10-26T07:37:58;7.82;;;4.18;;
7031;SDS011;3557;48.880;8.328;2022-10-26T07:40:26;4.28;;;3.55;;
7031;SDS011;3557;48.880;8.328;2022-10-26T07:42:55;6.13;;;3.85;;
7031;SDS011;3557;48.880;8.328;2022-10-26T07:45:23;8.23;;;3.60;;
7031;SDS011;3557;48.880;8.328;2022-10-26T07:47:51;7.97;;;4.00;;
7031;SDS011;3557;48.880;8.328;2022-10-26T07:50:20;6.45;;;4.28;;
7031;SDS011;3557;48.880;8.328;2022-10-26T07:52:47;7.28;;;3.70;;
7031;SDS011;3557;48.880;8.328;2022-10-26T07:55:14;9.50;;;3.65;;
7031;SDS011;3557;48.880;8.328;2022-10-26T07:57:42;6.40;;;3.20;;
7031;SDS011;3557;48.880;8.328;2022-10-26T08:00:09;7.97;;;3.28;;
7031;SDS011;3557;48.880;8.328;2022-10-26T08:02:37;3.72;;;2.97;;
7031;SDS011;3557;48.880;8.328;2022-10-26T08:05:05;4.18;;;2.70;;
7031;SDS011;3557;48.880;8.328;2022-10-26T08:07:34;5.07;;;2.70;;
7031;SDS011;3557;48.880;8.328;2022-10-26T08:10:07;3.95;;;2.78;;
7031;SDS011;3557;48.880;8.328;2022-10-26T08:12:35;4.93;;;2.83;;
7031;SDS011;3557;48.880;8.328;2022-10-26T08:15:03;7.72;;;2.78;;
7031;SDS011;3557;48.880;8.328;2022-10-26T08:17:32;4.53;;;2.70;;
7031;SDS011;3557;48.880;8.328;2022-10-26T08:19:59;9.35;;;3.45;;
7031;SDS011;3557;48.880;8.328;2022-10-26T08:22:27;6.30;;;4.25;;
7031;SDS011;3557;48.880;8.328;2022-10-26T08:24:56;7.40;;;3.75;;
7031;SDS011;3557;48.880;8.328;2022-10-26T08:27:23;7.45;;;4.45;;
7031;SDS011;3557;48.880;8.328;2022-10-26T08:29:50;7.25;;;3.45;;
7031;SDS011;3557;48.880;8.328;2022-10-26T08:32:17;10.55;;;3.38;;
7031;SDS011;3557;48.880;8.328;2022-10-26T08:34:44;4.15;;;2.75;;
7031;SDS011;3557;48.880;8.328;2022-10-26T08:37:11;4.07;;;2.75;;
7031;SDS011;3557;48.880;8.328;2022-10-26T08:39:38;4.47;;;2.50;;
7031;SDS011;3557;48.880;8.328;2022-10-26T08:42:09;3.75;;;2.15;;
7031;SDS011;3557;48.880;8.328;2022-10-26T08:44:41;6.47;;;2.70;;
7031;SDS011;3557;48.880;8.328;2022-10-26T08:47:13;4.93;;;2.30;;
7031;SDS011;3557;48.880;8.328;2022-10-26T08:49:46;3.58;;;2.13;;
7031;SDS011;3557;48.880;8.328;2022-10-26T08:52:19;4.22;;;2.13;;
7031;SDS011;3557;48.880;8.328;2022-10-26T08:54:52;4.55;;;2.30;;
7031;SDS011;3557;48.880;8.328;2022-10-26T08:57:24;3.83;;;2.08;;
7031;SDS011;3557;48.880;8.328;2022-10-26T08:59:58;5.28;;;2.20;;
7031;SDS011;3557;48.880;8.328;2022-10-26T09:02:29;3.88;;;2.00;;
7031;SDS011;3557;48.880;8.328;2022-10-26T09:04:57;5.47;;;2.20;;
7031;SDS011;3557;48.880;8.328;2022-10-26T09:07:31;4.32;;;2.00;;
7031;SDS011;3557;48.880;8.328;2022-10-26T09:10:22;6.45;;;2.42;;
7031;SDS011;3557;48.880;8.328;2022-10-26T09:13:03;6.45;;;2.40;;
7031;SDS011;3557;48.880;8.328;2022-10-26T09:15:51;6.35;;;2.30;;
7031;SDS011;3557;48.880;8.328;2022-10-26T09:18:31;6.88;;;2.60;;
7031;SDS011;3557;48.880;8.328;2022-10-26T09:21:25;4.60;;;2.03;;
7031;SDS011;3557;48.880;8.328;2022-10-26T09:24:05;4.25;;;2.15;;
7031;SDS011;3557;48.880;8.328;2022-10-26T09:26:41;4.07;;;2.13;;
7031;SDS011;3557;48.880;8.328;2022-10-26T09:29:22;8.27;;;2.33;;
7031;SDS011;3557;48.880;8.328;2022-10-26T09:31:54;9.15;;;2.47;;
7031;SDS011;3557;48.880;8.328;2022-10-26T09:34:26;5.22;;;2.33;;
7031;SDS011;3557;48.880;8.328;2022-10-26T09:36:56;4.65;;;2.10;;
7031;SDS011;3557;48.880;8.328;2022-10-26T09:39:34;6.50;;;2.10;;
7031;SDS011;3557;48.880;8.328;2022-10-26T09:42:10;9.95;;;2.20;;
7031;SDS011;3557;48.880;8.328;2022-10-26T09:44:45;4.68;;;2.10;;
7031;SDS011;3557;48.880;8.328;2022-10-26T09:47:22;6.97;;;2.10;;
7031;SDS011;3557;48.880;8.328;2022-10-26T09:50:04;6.55;;;2.17;;
7031;SDS011;3557;48.880;8.328;2022-10-26T09:52:45;6.75;;;2.35;;
7031;SDS011;3557;48.880;8.328;2022-10-26T09:55:12;6.15;;;2.03;;
7031;SDS011;3557;48.880;8.328;2022-10-26T09:57:40;4.10;;;2.22;;
7031;SDS011;3557;48.880;8.328;2022-10-26T10:00:13;5.55;;;2.10;;
7031;SDS011;3557;48.880;8.328;2022-10-26T10:02:43;6.65;;;2.20;;
7031;SDS011;3557;48.880;8.328;2022-10-26T10:05:26;5.65;;;2.20;;
7031;SDS011;3557;48.880;8.328;2022-10-26T10:08:17;4.47;;;2.10;;
7031;SDS011;3557;48.880;8.328;2022-10-26T10:10:53;4.72;;;2.22;;
7031;SDS011;3557;48.880;8.328;2022-10-26T10:13:28;4.43;;;2.40;;
7031;SDS011;3557;48.880;8.328;2022-10-26T10:16:01;5.75;;;2.03;;
7031;SDS011;3557;48.880;8.328;2022-10-26T10:18:36;5.50;;;2.03;;
7031;SDS011;3557;48.880;8.328;2022-10-26T10:21:04;4.55;;;2.10;;
7031;SDS011;3557;48.880;8.328;2022-10-26T10:23:33;5.63;;;2.17;;
7031;SDS011;3557;48.880;8.328;2022-10-26T10:26:06;8.25;;;2.75;;
7031;SDS011;3557;48.880;8.328;2022-10-26T10:28:36;5.65;;;2.20;;
7031;SDS011;3557;48.880;8.328;2022-10-26T10:31:17;3.85;;;2.08;;
7031;SDS011;3557;48.880;8.328;2022-10-26T10:33:47;3.78;;;1.85;;
7031;SDS011;3557;48.880;8.328;2022-10-26T10:36:15;6.97;;;2.15;;
7031;SDS011;3557;48.880;8.328;2022-10-26T10:38:45;5.32;;;2.10;;
7031;SDS011;3557;48.880;8.328;2022-10-26T10:41:15;3.47;;;1.90;;
7031;SDS011;3557;48.880;8.328;2022-10-26T10:43:47;4.05;;;1.75;;
7031;SDS011;3557;48.880;8.328;2022-10-26T10:46:18;6.68;;;2.28;;
7031;SDS011;3557;48.880;8.328;2022-10-26T10:48:50;5.70;;;1.98;;
7031;SDS011;3557;48.880;8.328;2022-10-26T10:51:22;6.85;;;1.90;;
7031;SDS011;3557;48.880;8.328;2022-10-26T10:53:51;2.80;;;1.92;;
7031;SDS011;3557;48.880;8.328;2022-10-26T10:56:22;3.95;;;2.00;;
7031;SDS011;3557;48.880;8.328;2022-10-26T10:59:10;5.03;;;1.80;;
7031;SDS011;3557;48.880;8.328;2022-10-26T11:01:56;5.65;;;1.90;;
7031;SDS011;3557;48.880;8.328;2022-10-26T11:05:02;5.03;;;1.75;;
7031;SDS011;3557;48.880;8.328;2022-10-26T11:07:46;4.25;;;1.92;;
7031;SDS011;3557;48.880;8.328;2022-10-26T11:10:20;6.40;;;2.00;;
7031;SDS011;3557;48.880;8.328;2022-10-26T11:12:52;4.75;;;1.88;;
7031;SDS011;3557;48.880;8.328;2022-10-26T11:15:25;5.32;;;1.85;;
7031;SDS011;3557;48.880;8.328;2022-10-26T11:17:59;5.60;;;2.20;;
7031;SDS011;3557;48.880;8.328;2022-10-26T11:20:34;4.72;;;2.08;;
7031;SDS011;3557;48.880;8.328;2022-10-26T11:23:07;5.95;;;1.92;;
7031;SDS011;3557;48.880;8.328;2022-10-26T11:25:40;4.22;;;1.85;;
7031;SDS011;3557;48.880;8.328;2022-10-26T11:28:15;7.25;;;1.95;;
7031;SDS011;3557;48.880;8.328;2022-10-26T11:30:51;8.73;;;2.17;;
7031;SDS011;3557;48.880;8.328;2022-10-26T11:33:27;3.15;;;1.88;;
7031;SDS011;3557;48.880;8.328;2022-10-26T11:36:02;3.63;;;1.90;;
7031;SDS011;3557;48.880;8.328;2022-10-26T11:38:34;7.35;;;2.22;;
7031;SDS011;3557;48.880;8.328;2022-10-26T11:41:13;5.07;;;2.15;;
7031;SDS011;3557;48.880;8.328;2022-10-26T11:43:45;6.50;;;1.90;;
7031;SDS011;3557;48.880;8.328;2022-10-26T11:46:15;4.85;;;1.92;;
7031;SDS011;3557;48.880;8.328;2022-10-26T11:48:49;6.22;;;1.90;;
7031;SDS011;3557;48.880;8.328;2022-10-26T11:51:30;6.43;;;2.25;;
7031;SDS011;3557;48.880;8.328;2022-10-26T11:54:06;11.02;;;2.30;;
7031;SDS011;3557;48.880;8.328;2022-10-26T11:56:39;7.15;;;2.08;;
7031;SDS011;3557;48.880;8.328;2022-10-26T11:59:14;3.40;;;1.90;;
7031;SDS011;3557;48.880;8.328;2022-10-26T12:01:46;5.75;;;2.13;;
7031;SDS011;3557;48.880;8.328;2022-10-26T12:04:16;7.82;;;2.08;;
7031;SDS011;3557;48.880;8.328;2022-10-26T12:06:47;6.07;;;2.05;;
7031;SDS011;3557;48.880;8.328;2022-10-26T12:09:17;5.25;;;1.90;;
7031;SDS011;3557;48.880;8.328;2022-10-26T12:11:50;4.47;;;1.90;;
7031;SDS011;3557;48.880;8.328;2022-10-26T12:14:25;4.47;;;1.77;;
7031;SDS011;3557;48.880;8.328;2022-10-26T12:16:59;4.50;;;2.03;;
7031;SDS011;3557;48.880;8.328;2022-10-26T12:19:37;7.20;;;2.00;;
7031;SDS011;3557;48.880;8.328;2022-10-26T12:22:10;3.92;;;2.00;;
7031;SDS011;3557;48.880;8.328;2022-10-26T12:24:42;6.43;;;2.00;;
7031;SDS011;3557;48.880;8.328;2022-10-26T12:30:13;3.95;;;2.05;;
7031;SDS011;3557;48.880;8.328;2022-10-26T12:32:51;3.08;;;1.85;;
7031;SDS011;3557;48.880;8.328;2022-10-26T12:35:34;4.03;;;2.08;;
7031;SDS011;3557;48.880;8.328;2022-10-26T12:41:30;6.00;;;2.10;;
7031;SDS011;3557;48.880;8.328;2022-10-26T12:44:00;4.93;;;2.00;;
7031;SDS011;3557;48.880;8.328;2022-10-26T12:47:00;5.55;;;2.20;;
7031;SDS011;3557;48.880;8.328;2022-10-26T12:52:31;3.65;;;1.90;;
7031;SDS011;3557;48.880;8.328;2022-10-26T12:55:25;5.60;;;1.90;;
7031;SDS011;3557;48.880;8.328;2022-10-26T12:58:35;5.93;;;2.10;;
7031;SDS011;3557;48.880;8.328;2022-10-26T13:01:28;4.97;;;2.17;;
7031;SDS011;3557;48.880;8.328;2022-10-26T13:07:21;7.90;;;2.08;;
7031;SDS011;3557;48.880;8.328;2022-10-26T13:09:52;5.97;;;1.90;;
7031;SDS011;3557;48.880;8.328;2022-10-26T13:12:25;8.80;;;2.13;;
7031;SDS011;3557;48.880;8.328;2022-10-26T13:14:57;5.95;;;1.73;;
7031;SDS011;3557;48.880;8.328;2022-10-26T13:17:29;7.93;;;2.22;;
7031;SDS011;3557;48.880;8.328;2022-10-26T13:19:58;3.20;;;1.80;;
7031;SDS011;3557;48.880;8.328;2022-10-26T13:22:26;7.03;;;2.20;;
7031;SDS011;3557;48.880;8.328;2022-10-26T13:24:55;6.78;;;1.90;;
7031;SDS011;3557;48.880;8.328;2022-10-26T13:27:41;10.48;;;1.88;;
7031;SDS011;3557;48.880;8.328;2022-10-26T13:33:13;7.22;;;2.10;;
7031;SDS011;3557;48.880;8.328;2022-10-26T13:35:48;3.70;;;1.85;;
7031;SDS011;3557;48.880;8.328;2022-10-26T13:38:19;5.72;;;2.00;;
7031;SDS011;3557;48.880;8.328;2022-10-26T13:40:59;5.40;;;2.10;;
7031;SDS011;3557;48.880;8.328;2022-10-26T13:43:39;5.13;;;1.80;;
7031;SDS011;3557;48.880;8.328;2022-10-26T13:46:12;4.28;;;2.10;;
7031;SDS011;3557;48.880;8.328;2022-10-26T13:48:51;6.65;;;2.00;;
7031;SDS011;3557;48.880;8.328;2022-10-26T13:51:25;5.45;;;1.92;;
7031;SDS011;3557;48.880;8.328;2022-10-26T13:54:05;5.53;;;2.00;;
7031;SDS011;3557;48.880;8.328;2022-10-26T13:56:42;4.95;;;1.92;;
7031;SDS011;3557;48.880;8.328;2022-10-26T13:59:19;6.63;;;2.15;;
7031;SDS011;3557;48.880;8.328;2022-10-26T14:01:52;7.20;;;2.10;;
7031;SDS011;3557;48.880;8.328;2022-10-26T14:04:33;8.85;;;2.28;;
7031;SDS011;3557;48.880;8.328;2022-10-26T14:07:00;4.68;;;2.03;;
7031;SDS011;3557;48.880;8.328;2022-10-26T14:09:27;5.00;;;1.90;;
7031;SDS011;3557;48.880;8.328;2022-10-26T14:11:56;3.40;;;1.80;;
7031;SDS011;3557;48.880;8.328;2022-10-26T14:14:27;6.57;;;2.35;;
7031;SDS011;3557;48.880;8.328;2022-10-26T14:16:57;6.65;;;2.00;;
7031;SDS011;3557;48.880;8.328;2022-10-26T14:19:26;7.72;;;2.30;;
7031;SDS011;3557;48.880;8.328;2022-10-26T14:22:00;3.45;;;1.60;;
7031;SDS011;3557;48.880;8.328;2022-10-26T14:24:28;6.38;;;2.10;;
7031;SDS011;3557;48.880;8.328;2022-10-26T14:26:57;3.60;;;2.00;;
7031;SDS011;3557;48.880;8.328;2022-10-26T14:29:25;4.63;;;1.98;;
7031;SDS011;3557;48.880;8.328;2022-10-26T14:31:57;6.03;;;2.15;;
7031;SDS011;3557;48.880;8.328;2022-10-26T14:34:24;6.57;;;2.40;;
7031;SDS011;3557;48.880;8.328;2022-10-26T14:36:53;6.75;;;2.10;;
7031;SDS011;3557;48.880;8.328;2022-10-26T14:39:27;4.05;;;1.88;;
7031;SDS011;3557;48.880;8.328;2022-10-26T14:41:58;4.18;;;1.90;;
7031;SDS011;3557;48.880;8.328;2022-10-26T14:44:28;4.07;;;1.92;;
7031;SDS011;3557;48.880;8.328;2022-10-26T14:46:55;5.45;;;1.92;;
7031;SDS011;3557;48.880;8.328;2022-10-26T14:49:23;4.35;;;1.90;;
7031;SDS011;3557;48.880;8.328;2022-10-26T14:51:55;5.75;;;2.30;;
7031;SDS011;3557;48.880;8.328;2022-10-26T14:54:26;7.20;;;2.20;;
7031;SDS011;3557;48.880;8.328;2022-10-26T14:56:54;7.35;;;2.10;;
7031;SDS011;3557;48.880;8.328;2022-10-26T14:59:23;3.72;;;1.88;;
7031;SDS011;3557;48.880;8.328;2022-10-26T15:01:53;8.55;;;2.25;;
7031;SDS011;3557;48.880;8.328;2022-10-26T15:04:28;5.40;;;2.20;;
7031;SDS011;3557;48.880;8.328;2022-10-26T15:07:12;3.90;;;2.20;;
7031;SDS011;3557;48.880;8.328;2022-10-26T15:09:44;4.85;;;2.35;;
7031;SDS011;3557;48.880;8.328;2022-10-26T15:12:17;5.28;;;2.10;;
7031;SDS011;3557;48.880;8.328;2022-10-26T15:14:54;4.43;;;2.10;;
7031;SDS011;3557;48.880;8.328;2022-10-26T15:17:22;4.20;;;1.90;;
7031;SDS011;3557;48.880;8.328;2022-10-26T15:19:56;6.15;;;1.95;;
7031;SDS011;3557;48.880;8.328;2022-10-26T15:22:29;4.43;;;1.95;;
7031;SDS011;3557;48.880;8.328;2022-10-26T15:24:57;6.13;;;2.33;;
7031;SDS011;3557;48.880;8.328;2022-10-26T15:27:28;6.75;;;1.95;;
7031;SDS011;3557;48.880;8.328;2022-10-26T15:30:07;6.03;;;2.25;;
7031;SDS011;3557;48.880;8.328;2022-10-26T15:32:41;6.30;;;2.10;;
7031;SDS011;3557;48.880;8.328;2022-10-26T15:35:21;3.80;;;1.92;;
7031;SDS011;3557;48.880;8.328;2022-10-26T15:37:52;3.97;;;1.90;;
7031;SDS011;3557;48.880;8.328;2022-10-26T15:40:22;8.10;;;3.88;;
7031;SDS011;3557;48.880;8.328;2022-10-26T15:42:51;8.38;;;3.50;;
7031;SDS011;3557;48.880;8.328;2022-10-26T15:45:20;7.50;;;3.20;;
7031;SDS011;3557;48.880;8.328;2022-10-26T15:47:48;10.07;;;3.53;;
7031;SDS011;3557;48.880;8.328;2022-10-26T15:50:18;6.43;;;2.40;;
7031;SDS011;3557;48.880;8.328;2022-10-26T15:52:47;7.85;;;2.25;;
7031;SDS011;3557;48.880;8.328;2022-10-26T15:55:14;7.00;;;3.00;;
7031;SDS011;3557;48.880;8.328;2022-10-26T15:57:43;6.22;;;2.38;;
7031;SDS011;3557;48.880;8.328;2022-10-26T16:00:13;4.70;;;2.55;;
7031;SDS011;3557;48.880;8.328;2022-10-26T16:02:43;7.82;;;2.88;;
7031;SDS011;3557;48.880;8.328;2022-10-26T16:05:11;7.03;;;2.63;;
7031;SDS011;3557;48.880;8.328;2022-10-26T16:07:41;6.20;;;3.40;;
7031;SDS011;3557;48.880;8.328;2022-10-26T16:10:13;4.60;;;2.75;;
7031;SDS011;3557;48.880;8.328;2022-10-26T16:12:47;9.48;;;3.30;;